Terminal Aerodrome Forecast
Issued by NWS

Home | Current Version | Previous Version | Text Only | Print | Product List | Glossary On
Versions: 1 2 3 4 5 6 7 8 9 10 11 12 13 14
000
FTUS42 KTAE 021720
TAFABY
TAF
KABY 021720Z 0218/0318 24010G15KT P6SM VCTS SCT040CB SCT250
     FM021900 26010G20KT 5SM TSRA BKN040CB
     FM022200 23008KT P6SM SCT040 BKN150
     FM030900 25008KT P6SM SCT100=

USA.gov is the U.S. government's official web portal to all federal, state and local government web resources and services.